Time;durP1;ratioP1;P1;durP2;ratioP2;P2;SDS_P1;SDS_P2;PMS_P1;PMS_P2;Temp;Humidity;BMP_temperature;BMP_pressure;BME280_temperature;BME280_humidity;BME280_pressure;Samples;Min_cycle;Max_cycle;Signal;HPM_P1;HPM_P2
2023/01/19 00:01:26;;;;;;;9.23;5.50;;;3.50;99.90;;;;;;5052865;28;20045;-72
2023/01/19 00:03:52;;;;;;;10.77;5.20;;;3.50;99.90;;;;;;5051998;28;20029;-72
2023/01/19 00:06:18;;;;;;;7.50;5.32;;;3.60;99.90;;;;;;5052855;28;20166;-72
2023/01/19 00:08:44;;;;;;;7.53;5.63;;;3.50;99.90;;;;;;5051567;28;20051;-72
2023/01/19 00:11:11;;;;;;;7.40;5.85;;;3.50;99.90;;;;;;5052713;28;20114;-73
2023/01/19 00:13:38;;;;;;;7.68;5.50;;;3.50;99.90;;;;;;5052075;28;20491;-73
2023/01/19 00:16:04;;;;;;;6.97;5.25;;;3.40;99.90;;;;;;5052924;28;20041;-72
2023/01/19 00:18:30;;;;;;;8.55;5.70;;;3.50;99.90;;;;;;5052667;28;20044;-73
2023/01/19 00:20:55;;;;;;;8.90;5.43;;;3.30;99.90;;;;;;5051597;28;20045;-73
2023/01/19 00:23:21;;;;;;;9.43;6.53;;;3.40;99.90;;;;;;5052010;28;20068;-73
2023/01/19 00:25:48;;;;;;;11.35;5.05;;;3.40;99.90;;;;;;5052791;28;20041;-73
2023/01/19 00:28:15;;;;;;;7.95;5.72;;;3.40;99.90;;;;;;5052444;28;20506;-72
2023/01/19 00:30:42;;;;;;;9.60;5.63;;;3.30;99.90;;;;;;5051026;28;20198;-73
2023/01/19 00:33:08;;;;;;;10.77;6.22;;;3.40;99.90;;;;;;5052002;28;20112;-73
2023/01/19 00:35:34;;;;;;;7.00;4.95;;;3.40;99.90;;;;;;5052737;28;20509;-72
2023/01/19 00:38:02;;;;;;;8.68;5.38;;;3.40;99.90;;;;;;5051181;28;20037;-72
2023/01/19 00:40:28;;;;;;;9.20;5.80;;;3.50;99.90;;;;;;5052058;28;20569;-73
2023/01/19 00:42:53;;;;;;;9.10;5.10;;;3.40;99.90;;;;;;5050426;28;20131;-73
2023/01/19 00:45:22;;;;;;;5.72;4.22;;;3.50;99.90;;;;;;5050912;28;20040;-73
2023/01/19 00:47:53;;;;;;;7.72;4.25;;;3.60;99.90;;;;;;5051085;28;20518;-73
2023/01/19 00:50:19;;;;;;;7.15;3.83;;;3.60;99.90;;;;;;5050965;28;20045;-73
2023/01/19 00:52:45;;;;;;;6.50;3.50;;;3.60;99.90;;;;;;5050072;28;20048;-73
2023/01/19 00:55:13;;;;;;;4.03;3.28;;;3.60;99.90;;;;;;5050589;28;20041;-73
2023/01/19 00:57:40;;;;;;;6.20;3.47;;;3.60;99.90;;;;;;5051811;28;20082;-73
2023/01/19 01:00:10;;;;;;;6.90;3.10;;;3.60;99.90;;;;;;5051787;28;20522;-72
2023/01/19 01:02:36;;;;;;;5.40;3.58;;;3.50;99.90;;;;;;5033227;28;20124;-73
2023/01/19 01:05:02;;;;;;;7.22;3.33;;;3.70;99.90;;;;;;5051947;28;20086;-73
2023/01/19 01:07:28;;;;;;;5.13;2.50;;;3.60;99.90;;;;;;5051809;28;20041;-73
2023/01/19 01:09:55;;;;;;;6.40;2.80;;;3.50;99.90;;;;;;5051829;28;20083;-72
2023/01/19 01:12:21;;;;;;;5.40;2.75;;;3.60;99.90;;;;;;5049813;28;20045;-73
2023/01/19 01:14:47;;;;;;;6.43;2.95;;;3.50;99.90;;;;;;5051947;28;20095;-73
2023/01/19 01:17:13;;;;;;;7.28;2.92;;;3.60;99.90;;;;;;5051711;28;20115;-73
2023/01/19 01:19:41;;;;;;;7.18;2.38;;;3.60;99.90;;;;;;5051773;28;20483;-73
2023/01/19 01:22:08;;;;;;;4.68;3.05;;;3.60;99.90;;;;;;5051515;28;20076;-73
2023/01/19 01:24:34;;;;;;;6.63;2.63;;;3.70;99.90;;;;;;5051057;28;20048;-73
2023/01/19 01:27:00;;;;;;;4.05;2.47;;;3.70;99.90;;;;;;5051598;28;20491;-73
2023/01/19 01:29:26;;;;;;;3.95;2.35;;;3.70;99.90;;;;;;5050595;28;20044;-73
2023/01/19 01:31:51;;;;;;;2.40;1.50;;;3.70;99.90;;;;;;5050130;28;20491;-73
2023/01/19 01:34:17;;;;;;;6.95;3.38;;;3.70;99.90;;;;;;5050792;28;20044;-73
2023/01/19 01:36:43;;;;;;;2.75;1.75;;;3.70;99.90;;;;;;5050140;28;20041;-73
2023/01/19 01:39:08;;;;;;;4.20;2.28;;;3.60;99.90;;;;;;5051377;28;20402;-73
2023/01/19 01:41:34;;;;;;;3.60;2.63;;;3.60;99.90;;;;;;5051747;28;20040;-73
2023/01/19 01:44:01;;;;;;;5.30;3.45;;;3.60;99.90;;;;;;5049431;28;20048;-72
2023/01/19 01:46:29;;;;;;;4.95;3.42;;;3.50;99.90;;;;;;5051338;28;20045;-72
2023/01/19 01:49:05;;;;;;;5.40;3.40;;;3.40;99.90;;;;;;5051441;28;20047;-72
2023/01/19 01:51:37;;;;;;;5.70;3.20;;;3.40;99.90;;;;;;5049790;28;20045;-72
2023/01/19 01:54:12;;;;;;;4.28;3.78;;;3.50;99.90;;;;;;5050639;28;20083;-72
2023/01/19 01:56:46;;;;;;;5.57;3.75;;;3.50;99.90;;;;;;5050307;28;20068;-72
2023/01/19 01:59:28;;;;;;;5.65;3.95;;;3.40;99.90;;;;;;5051844;28;20075;-72
2023/01/19 02:04:46;;;;;;;5.65;3.35;;;3.30;99.90;;;;;;5051025;28;20049;-72
2023/01/19 02:15:28;;;;;;;11.27;5.03;;;3.10;99.90;;;;;;5055159;28;20060;-72
2023/01/19 02:17:57;;;;;;;7.15;4.63;;;3.20;99.90;;;;;;5055078;28;20491;-72
2023/01/19 02:20:29;;;;;;;5.07;4.05;;;3.10;99.90;;;;;;5053554;28;20080;-72
2023/01/19 02:22:59;;;;;;;6.95;4.28;;;3.10;99.90;;;;;;5054100;28;20048;-72
2023/01/19 02:25:25;;;;;;;10.50;4.53;;;3.10;99.90;;;;;;5054859;28;20041;-72
2023/01/19 02:27:51;;;;;;;5.07;3.75;;;3.10;99.90;;;;;;5054889;28;20037;-72
2023/01/19 02:30:17;;;;;;;6.53;4.53;;;3.10;99.90;;;;;;5054698;28;20106;-72
2023/01/19 02:32:43;;;;;;;7.78;4.85;;;3.10;99.90;;;;;;5053916;28;20037;-72
2023/01/19 02:35:10;;;;;;;7.95;5.20;;;3.20;99.90;;;;;;5053600;28;20059;-72
2023/01/19 02:37:39;;;;;;;7.28;4.78;;;3.20;99.90;;;;;;5053410;28;20037;-72
2023/01/19 02:40:14;;;;;;;7.90;5.63;;;3.10;99.90;;;;;;5054785;28;20049;-72
2023/01/19 02:42:47;;;;;;;7.80;4.68;;;3.20;99.90;;;;;;5052572;28;20048;-72
2023/01/19 02:45:16;;;;;;;8.75;5.45;;;3.10;99.90;;;;;;5054568;28;20037;-72
2023/01/19 02:47:45;;;;;;;7.88;5.50;;;3.20;99.90;;;;;;5054322;28;20048;-72
2023/01/19 02:50:36;;;;;;;8.85;5.60;;;3.20;99.90;;;;;;5054434;28;20041;-72
2023/01/19 02:53:19;;;;;;;9.93;6.20;;;3.10;99.90;;;;;;5052580;28;20128;-72
2023/01/19 02:55:55;;;;;;;8.60;5.50;;;3.20;99.90;;;;;;5054403;28;20037;-72
2023/01/19 02:58:39;;;;;;;8.38;5.55;;;3.10;99.90;;;;;;5054453;28;20120;-72
2023/01/19 03:01:25;;;;;;;7.03;4.80;;;3.10;99.90;;;;;;5075072;22;20041;-70
2023/01/19 03:04:14;;;;;;;9.82;4.95;;;3.10;99.90;;;;;;5052288;28;20575;-70
2023/01/19 03:07:19;;;;;;;9.48;4.88;;;3.10;99.90;;;;;;5054198;28;20510;-70
2023/01/19 03:10:05;;;;;;;6.97;4.50;;;3.20;99.90;;;;;;5031181;28;20048;-70
2023/01/19 03:13:07;;;;;;;8.07;5.40;;;3.20;99.90;;;;;;5033769;28;20081;-70
2023/01/19 03:15:54;;;;;;;10.23;5.63;;;3.10;99.90;;;;;;5034308;28;20167;-70
2023/01/19 03:18:25;;;;;;;12.68;8.60;;;3.10;99.90;;;;;;5032741;28;20043;-70
2023/01/19 03:20:53;;;;;;;11.00;5.90;;;3.20;99.90;;;;;;5033650;28;20041;-70
2023/01/19 03:23:23;;;;;;;9.75;7.28;;;3.20;99.90;;;;;;5031846;28;20495;-70
2023/01/19 03:25:51;;;;;;;9.02;6.70;;;3.30;99.90;;;;;;5034066;28;20128;-70
2023/01/19 03:28:20;;;;;;;11.27;6.97;;;3.40;99.90;;;;;;5032561;28;20049;-70
2023/01/19 03:30:51;;;;;;;11.82;7.20;;;3.30;99.90;;;;;;5032422;28;20045;-70
2023/01/19 03:33:27;;;;;;;9.63;7.00;;;3.30;99.90;;;;;;5031752;28;20037;-70
2023/01/19 03:36:00;;;;;;;14.02;7.80;;;3.20;99.90;;;;;;5035061;28;20120;-70
2023/01/19 03:38:27;;;;;;;12.60;7.32;;;3.30;99.90;;;;;;5041345;28;20037;-70
2023/01/19 03:40:58;;;;;;;10.75;7.57;;;3.30;99.90;;;;;;5033910;28;20045;-70
2023/01/19 03:43:25;;;;;;;13.38;8.35;;;3.30;99.90;;;;;;5031531;28;20056;-70
2023/01/19 03:45:52;;;;;;;13.05;7.88;;;3.30;99.90;;;;;;5033870;28;20492;-70
2023/01/19 03:48:20;;;;;;;12.70;7.55;;;3.20;99.90;;;;;;5033572;28;20041;-70
2023/01/19 03:50:46;;;;;;;13.48;7.72;;;3.20;99.90;;;;;;5015416;28;20077;-70
2023/01/19 03:53:13;;;;;;;13.05;8.07;;;3.20;99.90;;;;;;5032505;28;20096;-70
2023/01/19 03:55:43;;;;;;;11.27;7.18;;;3.20;99.90;;;;;;5032059;28;20503;-70
2023/01/19 03:58:09;;;;;;;11.23;6.85;;;3.10;99.90;;;;;;5033234;28;20549;-70
2023/01/19 04:00:36;;;;;;;9.57;6.80;;;3.30;99.90;;;;;;5031684;28;20056;-70
2023/01/19 04:03:05;;;;;;;9.75;7.28;;;3.20;99.90;;;;;;5031396;28;20072;-70
2023/01/19 04:05:31;;;;;;;12.93;7.47;;;3.20;99.90;;;;;;5031782;28;20090;-70
2023/01/19 04:07:57;;;;;;;10.15;7.07;;;3.10;99.90;;;;;;5031982;28;20045;-70
2023/01/19 04:10:23;;;;;;;13.82;7.22;;;3.20;99.90;;;;;;5032818;28;20041;-70
2023/01/19 04:12:49;;;;;;;12.70;7.80;;;3.10;99.90;;;;;;5031191;28;20128;-70
2023/01/19 04:15:14;;;;;;;12.73;7.30;;;3.10;99.90;;;;;;5031801;28;20150;-70
2023/01/19 04:17:40;;;;;;;9.77;7.05;;;3.10;99.90;;;;;;5032779;28;20041;-70
2023/01/19 04:20:07;;;;;;;10.75;7.10;;;3.10;99.90;;;;;;5031370;28;20033;-70
2023/01/19 04:22:33;;;;;;;12.68;7.18;;;3.10;99.90;;;;;;5032146;28;20056;-70
2023/01/19 04:24:58;;;;;;;9.05;6.55;;;3.10;99.90;;;;;;5032716;28;20038;-70
2023/01/19 04:27:24;;;;;;;8.75;6.32;;;3.20;99.90;;;;;;5032637;28;20041;-70
2023/01/19 04:29:50;;;;;;;9.95;6.10;;;3.20;99.90;;;;;;5014842;28;20048;-70
2023/01/19 04:32:16;;;;;;;9.50;6.32;;;3.20;99.90;;;;;;5030096;28;20041;-70
2023/01/19 04:34:42;;;;;;;8.73;6.00;;;3.10;99.90;;;;;;5030870;28;20049;-70
2023/01/19 04:37:08;;;;;;;10.60;6.20;;;3.30;99.90;;;;;;5014686;28;20048;-70
2023/01/19 04:39:34;;;;;;;8.75;5.75;;;3.20;99.90;;;;;;5032412;28;20037;-70
2023/01/19 04:42:00;;;;;;;8.85;5.80;;;3.20;99.90;;;;;;5030922;28;20041;-70
2023/01/19 04:44:26;;;;;;;10.10;6.93;;;3.20;99.90;;;;;;5030099;28;20052;-70
2023/01/19 04:46:52;;;;;;;9.07;6.15;;;3.30;99.90;;;;;;5032469;28;20037;-70
2023/01/19 04:49:18;;;;;;;8.85;5.65;;;3.30;99.90;;;;;;5031227;28;20060;-70
2023/01/19 04:51:43;;;;;;;10.45;5.57;;;3.30;99.90;;;;;;5030897;28;20033;-70
2023/01/19 04:54:09;;;;;;;7.32;5.20;;;3.20;99.90;;;;;;5030051;28;20491;-70
2023/01/19 04:56:35;;;;;;;11.65;6.10;;;3.10;99.90;;;;;;5030761;28;20041;-69
2023/01/19 04:59:00;;;;;;;8.82;5.55;;;3.20;99.90;;;;;;5032434;28;20040;-70
2023/01/19 05:01:26;;;;;;;11.63;6.20;;;3.20;99.90;;;;;;5030512;28;20045;-70
2023/01/19 05:03:52;;;;;;;10.60;5.50;;;3.10;99.90;;;;;;5031151;28;20068;-70
2023/01/19 05:06:18;;;;;;;9.20;5.07;;;3.20;99.90;;;;;;5030847;28;20049;-70
2023/01/19 05:08:43;;;;;;;10.82;6.10;;;3.10;99.90;;;;;;5030932;28;20049;-70
2023/01/19 05:11:09;;;;;;;9.20;5.55;;;3.10;99.90;;;;;;5030585;28;20085;-70
2023/01/19 05:13:34;;;;;;;8.40;5.07;;;3.10;99.90;;;;;;5029639;28;20392;-70
2023/01/19 05:16:00;;;;;;;11.63;5.40;;;3.20;99.90;;;;;;5014069;28;20422;-70
2023/01/19 05:18:26;;;;;;;9.88;6.53;;;3.20;99.90;;;;;;5030405;28;20033;-70
2023/01/19 05:20:51;;;;;;;8.85;5.78;;;3.10;99.90;;;;;;5030677;28;20137;-70
2023/01/19 05:23:17;;;;;;;9.32;5.53;;;3.20;99.90;;;;;;5013427;28;20076;-70
2023/01/19 05:25:43;;;;;;;7.03;4.65;;;3.20;99.90;;;;;;5013850;28;20128;-70
2023/01/19 05:28:09;;;;;;;7.30;4.75;;;3.20;99.90;;;;;;5030338;28;20044;-70
2023/01/19 05:30:35;;;;;;;8.93;4.43;;;3.20;99.90;;;;;;5030147;28;20041;-70
2023/01/19 05:33:01;;;;;;;8.18;4.13;;;3.20;99.90;;;;;;5029573;28;20044;-70
2023/01/19 05:35:26;;;;;;;6.05;4.20;;;3.10;99.90;;;;;;5030434;28;20045;-70
2023/01/19 05:37:52;;;;;;;8.52;4.18;;;3.30;99.90;;;;;;5030518;28;20048;-70
2023/01/19 05:40:17;;;;;;;7.78;3.90;;;3.20;99.90;;;;;;5030105;28;20044;-70
2023/01/19 05:42:43;;;;;;;7.28;3.70;;;3.20;99.90;;;;;;5030422;28;20044;-70
2023/01/19 05:45:10;;;;;;;6.80;3.65;;;3.20;99.90;;;;;;5034396;28;20033;-70
2023/01/19 05:47:36;;;;;;;5.63;3.60;;;3.10;99.90;;;;;;5034292;28;20044;-70
2023/01/19 05:50:01;;;;;;;7.72;3.70;;;3.10;99.90;;;;;;5035891;28;20045;-70
2023/01/19 05:52:27;;;;;;;6.35;3.30;;;3.20;99.90;;;;;;5033357;28;20049;-70
2023/01/19 05:54:54;;;;;;;8.32;3.53;;;3.20;99.90;;;;;;5035016;28;20033;-70
2023/01/19 05:57:19;;;;;;;6.45;3.42;;;3.30;99.90;;;;;;5035228;28;20049;-70
2023/01/19 05:59:45;;;;;;;7.43;3.80;;;3.20;99.90;;;;;;5034052;28;20033;-70
2023/01/19 06:02:10;;;;;;;8.40;3.53;;;3.20;99.90;;;;;;5033854;28;20044;-70
2023/01/19 06:04:36;;;;;;;6.38;2.72;;;3.10;99.90;;;;;;5034718;28;20037;-70
2023/01/19 06:07:01;;;;;;;6.63;2.33;;;3.30;99.90;;;;;;5035251;28;20084;-70
2023/01/19 06:09:28;;;;;;;4.97;1.67;;;3.20;99.90;;;;;;5033831;28;20045;-70
2023/01/19 06:11:55;;;;;;;2.88;1.40;;;3.30;99.90;;;;;;5033858;28;20404;-70
2023/01/19 06:14:20;;;;;;;4.18;1.50;;;3.40;99.90;;;;;;5034389;28;20437;-70
2023/01/19 06:16:46;;;;;;;6.13;1.20;;;3.30;99.90;;;;;;5033711;28;20122;-70
2023/01/19 06:19:12;;;;;;;5.10;1.45;;;3.40;99.90;;;;;;5017354;28;20045;-70
2023/01/19 06:21:38;;;;;;;7.05;1.50;;;3.30;99.90;;;;;;5033546;28;20045;-70
2023/01/19 06:24:04;;;;;;;6.38;0.90;;;3.40;99.90;;;;;;5032785;28;20041;-71
2023/01/19 06:26:29;;;;;;;8.65;1.20;;;3.50;99.90;;;;;;5017066;28;20045;-71
2023/01/19 06:28:55;;;;;;;5.22;0.82;;;3.50;99.90;;;;;;5033407;28;20156;-71
2023/01/19 06:31:20;;;;;;;7.07;1.50;;;3.40;99.90;;;;;;5033292;28;20123;-71
2023/01/19 06:33:46;;;;;;;5.47;1.20;;;3.40;99.90;;;;;;5034038;28;20491;-71
2023/01/19 06:36:11;;;;;;;2.80;1.00;;;3.40;99.90;;;;;;5033497;28;20120;-71
2023/01/19 06:38:37;;;;;;;9.05;1.35;;;3.50;99.90;;;;;;5034725;28;20040;-71
2023/01/19 06:41:03;;;;;;;4.40;1.02;;;3.30;99.90;;;;;;5033168;28;20037;-71
2023/01/19 06:43:30;;;;;;;8.45;1.95;;;3.50;99.90;;;;;;5034077;28;20045;-71
2023/01/19 06:45:56;;;;;;;2.95;0.88;;;3.50;99.90;;;;;;5016703;28;20529;-71
2023/01/19 06:48:22;;;;;;;5.50;1.10;;;3.40;99.90;;;;;;5033088;28;20121;-71
2023/01/19 06:50:48;;;;;;;6.40;1.35;;;3.50;99.90;;;;;;5032745;28;20052;-71
2023/01/19 06:53:15;;;;;;;3.00;1.05;;;3.60;99.90;;;;;;5032202;28;20136;-70
2023/01/19 06:55:42;;;;;;;7.63;1.00;;;3.50;99.90;;;;;;5032287;28;20041;-70
2023/01/19 06:58:08;;;;;;;7.90;1.45;;;3.40;99.90;;;;;;5033015;28;20176;-70
2023/01/19 07:00:34;;;;;;;3.05;0.90;;;3.60;99.90;;;;;;5032807;28;20064;-70
2023/01/19 07:03:00;;;;;;;5.40;1.42;;;3.40;99.90;;;;;;5033527;28;20507;-70
2023/01/19 07:05:25;;;;;;;5.72;1.20;;;3.30;99.90;;;;;;5033974;28;20491;-70
2023/01/19 07:07:55;;;;;;;5.20;1.10;;;3.50;99.90;;;;;;5034025;28;20049;-70
2023/01/19 07:10:21;;;;;;;6.65;1.80;;;3.50;99.90;;;;;;5032562;28;20049;-70
2023/01/19 07:12:47;;;;;;;10.70;1.77;;;3.50;99.90;;;;;;5033185;28;20507;-70
2023/01/19 07:15:18;;;;;;;4.95;1.20;;;3.40;99.90;;;;;;5016121;28;20069;-70
2023/01/19 07:17:44;;;;;;;8.27;1.70;;;3.40;99.90;;;;;;5034017;28;20175;-70
2023/01/19 07:20:14;;;;;;;6.38;1.20;;;3.30;99.90;;;;;;5032493;28;20554;-70
2023/01/19 07:22:42;;;;;;;8.18;1.00;;;3.50;99.90;;;;;;5033958;28;20049;-70
2023/01/19 07:25:08;;;;;;;8.40;1.92;;;3.30;99.90;;;;;;5032421;28;20056;-70
2023/01/19 07:27:33;;;;;;;7.93;1.38;;;3.40;99.90;;;;;;5032499;28;20300;-70
2023/01/19 07:30:00;;;;;;;15.15;4.88;;;3.40;99.90;;;;;;5032284;28;20411;-70
2023/01/19 07:32:26;;;;;;;7.40;2.83;;;3.30;99.90;;;;;;5031645;28;20046;-70
2023/01/19 07:34:52;;;;;;;7.72;1.23;;;3.40;99.90;;;;;;5032287;28;20033;-70
2023/01/19 07:37:18;;;;;;;8.50;1.60;;;3.20;99.90;;;;;;5032080;28;20286;-70
2023/01/19 07:39:43;;;;;;;8.55;1.17;;;3.40;99.90;;;;;;5032155;28;20095;-70
2023/01/19 07:42:09;;;;;;;3.58;1.00;;;3.30;99.90;;;;;;5015563;28;20100;-70
2023/01/19 07:44:34;;;;;;;7.93;1.50;;;3.30;99.90;;;;;;5031218;28;20107;-70
2023/01/19 07:47:00;;;;;;;12.18;1.70;;;3.40;99.90;;;;;;5032102;28;20047;-70
2023/01/19 07:49:25;;;;;;;8.30;1.20;;;3.40;99.90;;;;;;5032173;28;20040;-70
2023/01/19 07:51:51;;;;;;;5.18;1.73;;;3.40;99.90;;;;;;5011683;28;20033;-70
2023/01/19 07:54:16;;;;;;;6.40;1.33;;;3.50;99.90;;;;;;5031007;28;20040;-70
2023/01/19 07:56:42;;;;;;;12.63;1.70;;;3.50;99.90;;;;;;5032026;28;20045;-70
2023/01/19 07:59:09;;;;;;;7.18;2.03;;;3.50;99.90;;;;;;5015520;28;20037;-70
2023/01/19 08:01:34;;;;;;;7.90;1.98;;;3.50;99.90;;;;;;5015060;28;20408;-70
2023/01/19 08:04:00;;;;;;;8.98;1.70;;;3.60;99.90;;;;;;5030937;28;20052;-69
2023/01/19 08:06:34;;;;;;;12.07;1.70;;;3.70;99.90;;;;;;5030574;28;20089;-70
2023/01/19 08:08:59;;;;;;;13.60;3.30;;;3.60;99.90;;;;;;5031714;28;20525;-69
2023/01/19 08:11:25;;;;;;;11.05;2.42;;;3.60;99.90;;;;;;5032815;28;20045;-70
2023/01/19 08:13:50;;;;;;;13.82;2.50;;;3.80;99.90;;;;;;5030694;28;20123;-69
2023/01/19 08:16:16;;;;;;;14.38;2.10;;;3.70;99.90;;;;;;5032724;28;20056;-70
2023/01/19 08:18:41;;;;;;;12.60;1.98;;;3.70;99.90;;;;;;5032607;28;20065;-70
2023/01/19 08:21:07;;;;;;;13.07;2.67;;;3.90;99.90;;;;;;5010640;28;20052;-70
2023/01/19 08:23:33;;;;;;;10.07;2.08;;;4.00;99.90;;;;;;5013393;28;20128;-70
2023/01/19 08:25:58;;;;;;;8.77;1.90;;;3.90;99.90;;;;;;5013895;28;20037;-70
2023/01/19 08:28:24;;;;;;;8.48;2.05;;;4.10;99.90;;;;;;5005155;28;20040;-70
2023/01/19 08:30:53;;;;;;;11.85;1.70;;;4.00;99.90;;;;;;5011762;28;20044;-70
2023/01/19 08:33:23;;;;;;;11.85;1.73;;;4.10;99.90;;;;;;5030350;28;20037;-70
2023/01/19 08:35:51;;;;;;;6.20;2.67;;;4.10;99.90;;;;;;5031078;28;20041;-70
2023/01/19 08:38:16;;;;;;;7.82;1.80;;;4.10;99.90;;;;;;5014623;28;20038;-70
2023/01/19 08:40:42;;;;;;;17.00;2.97;;;4.10;99.90;;;;;;5030956;28;20041;-70
2023/01/19 08:43:10;;;;;;;9.55;1.80;;;4.20;99.90;;;;;;5030173;28;20047;-70
2023/01/19 08:45:40;;;;;;;5.55;1.70;;;4.10;99.90;;;;;;5014456;28;20037;-70
2023/01/19 08:48:06;;;;;;;13.68;1.98;;;4.30;99.90;;;;;;5017158;28;20515;-70
2023/01/19 08:50:32;;;;;;;11.13;2.30;;;4.30;99.90;;;;;;5010808;28;20088;-70
2023/01/19 08:52:59;;;;;;;13.30;2.47;;;4.30;99.90;;;;;;5010359;28;20531;-70
2023/01/19 08:55:26;;;;;;;10.32;2.70;;;4.30;99.90;;;;;;5003628;28;20125;-70
2023/01/19 08:57:53;;;;;;;18.40;2.95;;;4.30;99.90;;;;;;5003499;28;20041;-70
2023/01/19 09:00:20;;;;;;;12.55;2.25;;;4.20;99.90;;;;;;5021201;28;20077;-71
2023/01/19 09:02:46;;;;;;;11.63;2.35;;;4.40;99.90;;;;;;5019093;28;20041;-70
2023/01/19 09:05:11;;;;;;;14.38;2.20;;;4.30;99.90;;;;;;5030576;28;20125;-70
2023/01/19 09:07:37;;;;;;;14.82;2.28;;;4.40;99.90;;;;;;5030575;28;20056;-70
2023/01/19 09:10:04;;;;;;;11.85;3.00;;;4.30;99.90;;;;;;5016613;28;20447;-70
2023/01/19 09:12:29;;;;;;;13.52;2.03;;;4.40;99.90;;;;;;5012209;28;20037;-70
2023/01/19 09:14:55;;;;;;;8.48;1.83;;;4.30;99.90;;;;;;5013463;28;20107;-74
2023/01/19 09:17:20;;;;;;;12.80;2.30;;;4.50;99.90;;;;;;4999853;28;20037;-74
2023/01/19 09:19:46;;;;;;;7.43;2.38;;;4.50;99.90;;;;;;5011006;28;20042;-73
2023/01/19 09:22:11;;;;;;;15.23;2.53;;;4.40;99.90;;;;;;5010616;28;20085;-73
2023/01/19 09:24:37;;;;;;;17.90;3.63;;;4.40;99.90;;;;;;5009984;28;20038;-73
2023/01/19 09:27:03;;;;;;;14.85;3.42;;;4.40;99.90;;;;;;5010847;28;20053;-73
2023/01/19 09:29:28;;;;;;;9.27;1.95;;;4.40;99.90;;;;;;5010488;28;20054;-73
2023/01/19 09:31:54;;;;;;;15.07;3.25;;;4.40;99.90;;;;;;5010394;28;20194;-73
2023/01/19 09:34:21;;;;;;;9.98;2.40;;;4.40;99.90;;;;;;5009808;28;20124;-73
2023/01/19 09:36:47;;;;;;;16.58;4.43;;;4.40;99.90;;;;;;4994243;28;20116;-73
2023/01/19 09:39:12;;;;;;;15.95;3.55;;;4.20;99.90;;;;;;5010523;28;20543;-74
2023/01/19 09:41:42;;;;;;;12.52;2.90;;;4.30;99.90;;;;;;5010371;28;20128;-73
2023/01/19 09:44:26;;;;;;;14.52;2.20;;;4.40;99.90;;;;;;5009962;28;20104;-73
2023/01/19 09:46:52;;;;;;;15.68;2.33;;;4.20;99.90;;;;;;5010499;28;20046;-73
2023/01/19 09:49:33;;;;;;;11.20;2.15;;;4.30;99.90;;;;;;4994119;28;20052;-73
2023/01/19 09:51:59;;;;;;;17.08;3.15;;;4.10;99.90;;;;;;5010388;28;20038;-73
2023/01/19 09:54:39;;;;;;;17.02;2.72;;;4.20;99.90;;;;;;5009651;28;20052;-71
2023/01/19 09:57:10;;;;;;;12.77;1.95;;;4.20;99.90;;;;;;5010489;28;20117;-71
2023/01/19 09:59:37;;;;;;;8.15;2.33;;;4.10;99.90;;;;;;5010347;28;20049;-73
2023/01/19 10:02:18;;;;;;;15.48;2.05;;;4.20;99.90;;;;;;5010076;28;20042;-71
2023/01/19 10:04:56;;;;;;;6.15;1.80;;;4.20;99.90;;;;;;5010107;28;20049;-71
2023/01/19 10:07:51;;;;;;;15.70;2.45;;;4.20;99.90;;;;;;4993858;28;20046;-71
2023/01/19 10:10:29;;;;;;;12.40;2.00;;;4.10;99.90;;;;;;5009961;28;20124;-71
2023/01/19 10:13:09;;;;;;;10.50;1.92;;;4.20;99.90;;;;;;5009663;28;20053;-72
2023/01/19 10:15:58;;;;;;;8.75;2.10;;;4.30;99.90;;;;;;4993578;28;20128;-72
2023/01/19 10:18:33;;;;;;;11.55;1.98;;;4.30;99.90;;;;;;4993886;28;20212;-72
2023/01/19 10:21:13;;;;;;;14.48;1.95;;;4.30;99.90;;;;;;5010080;28;20057;-72
2023/01/19 10:24:11;;;;;;;11.05;1.95;;;4.40;99.90;;;;;;5009484;28;20046;-71
2023/01/19 10:26:44;;;;;;;10.60;2.88;;;4.40;99.90;;;;;;5010364;28;20053;-74
2023/01/19 10:29:13;;;;;;;9.93;2.35;;;4.60;99.90;;;;;;5010360;28;20042;-74
2023/01/19 10:31:41;;;;;;;12.65;3.00;;;4.50;99.90;;;;;;5013688;28;20132;-74
2023/01/19 10:34:12;;;;;;;13.43;2.33;;;4.70;99.90;;;;;;5013181;28;20034;-74
2023/01/19 10:36:39;;;;;;;10.00;2.72;;;4.60;99.90;;;;;;5014026;28;20038;-74
2023/01/19 10:39:06;;;;;;;13.18;2.10;;;4.70;99.90;;;;;;5013712;28;20038;-74
2023/01/19 10:41:49;;;;;;;11.63;2.03;;;4.70;99.90;;;;;;4997158;28;20056;-74
2023/01/19 10:44:26;;;;;;;10.25;2.00;;;4.80;99.90;;;;;;5012946;28;20068;-74
2023/01/19 10:46:56;;;;;;;12.73;2.65;;;4.90;99.90;;;;;;5013656;28;20042;-73
2023/01/19 10:49:34;;;;;;;11.57;2.40;;;4.90;99.90;;;;;;5013478;28;20096;-74
2023/01/19 10:52:01;;;;;;;5.10;1.77;;;4.90;99.90;;;;;;4997012;28;20441;-74
2023/01/19 10:54:29;;;;;;;9.90;1.70;;;4.90;99.90;;;;;;5012323;28;20084;-74
2023/01/19 10:56:57;;;;;;;7.63;2.53;;;5.00;99.90;;;;;;5013333;28;20048;-74
2023/01/19 10:59:36;;;;;;;11.77;2.92;;;5.00;99.90;;;;;;4997130;28;20052;-74
2023/01/19 11:02:20;;;;;;;20.80;3.42;;;5.10;99.90;;;;;;5013113;28;20044;-74
2023/01/19 11:04:48;;;;;;;10.10;1.95;;;5.10;99.90;;;;;;5013016;28;20041;-74
2023/01/19 11:07:25;;;;;;;12.90;1.88;;;5.10;99.90;;;;;;5013216;28;20519;-74
2023/01/19 11:10:14;;;;;;;8.90;2.78;;;5.10;99.90;;;;;;5012979;28;20084;-74
2023/01/19 11:13:14;;;;;;;5.00;1.77;;;5.10;99.90;;;;;;5012105;28;20050;-74
2023/01/19 11:15:45;;;;;;;11.60;1.63;;;5.10;99.90;;;;;;5012968;28;20048;-74
2023/01/19 11:18:23;;;;;;;19.33;4.18;;;5.10;99.90;;;;;;5013185;28;20042;-74
2023/01/19 11:20:51;;;;;;;8.25;2.00;;;5.10;99.90;;;;;;5013016;28;20136;-74
2023/01/19 11:23:26;;;;;;;11.05;1.88;;;5.10;99.90;;;;;;5011988;28;20073;-74
2023/01/19 11:25:56;;;;;;;5.72;1.65;;;5.10;99.90;;;;;;5012871;28;20045;-74
2023/01/19 11:28:35;;;;;;;8.88;1.80;;;5.20;99.90;;;;;;5012916;28;20085;-74
2023/01/19 11:31:16;;;;;;;10.15;2.08;;;5.30;99.90;;;;;;5012784;28;20116;-74
2023/01/19 11:33:53;;;;;;;10.98;1.65;;;5.20;99.90;;;;;;5012082;28;20053;-74
2023/01/19 11:36:20;;;;;;;7.78;1.80;;;5.30;99.90;;;;;;5012448;28;20038;-74
2023/01/19 11:38:49;;;;;;;13.15;1.65;;;5.40;99.90;;;;;;5012346;28;20041;-74
2023/01/19 11:41:21;;;;;;;10.38;1.90;;;5.40;99.90;;;;;;4995888;28;20061;-74
2023/01/19 11:43:50;;;;;;;14.70;2.40;;;5.40;99.90;;;;;;5011697;28;20045;-74
2023/01/19 11:46:17;;;;;;;9.30;1.58;;;5.50;99.90;;;;;;5012567;28;20466;-73
2023/01/19 11:49:01;;;;;;;10.60;2.25;;;5.50;99.90;;;;;;5012305;28;20084;-74
2023/01/19 11:51:50;;;;;;;9.27;1.70;;;5.50;99.90;;;;;;5012099;28;20050;-74
2023/01/19 11:54:26;;;;;;;8.35;1.80;;;5.50;99.90;;;;;;5011507;28;20408;-74
2023/01/19 11:56:54;;;;;;;8.75;1.60;;;5.50;99.90;;;;;;4995949;28;20045;-74
2023/01/19 11:59:22;;;;;;;8.65;1.73;;;5.50;99.90;;;;;;4995773;28;20499;-74
2023/01/19 12:01:55;;;;;;;12.75;1.80;;;5.60;99.90;;;;;;5012042;28;20038;-74
2023/01/19 12:04:26;;;;;;;11.60;2.25;;;5.70;99.90;;;;;;5011306;28;20124;-74
2023/01/19 12:06:55;;;;;;;18.83;3.17;;;5.80;99.90;;;;;;5012028;28;20045;-74
2023/01/19 12:09:32;;;;;;;14.00;1.65;;;5.90;99.90;;;;;;5011775;28;20038;-74
2023/01/19 12:12:10;;;;;;;7.82;1.70;;;6.00;99.90;;;;;;5011833;28;20216;-72
2023/01/19 12:14:42;;;;;;;13.98;2.30;;;6.20;99.90;;;;;;4994877;28;20038;-72
2023/01/19 12:17:14;;;;;;;11.57;1.95;;;6.20;99.90;;;;;;5011672;28;20054;-74
2023/01/19 12:19:51;;;;;;;11.70;2.72;;;6.40;99.90;;;;;;5011371;28;20046;-74
2023/01/19 12:22:18;;;;;;;10.35;1.50;;;6.60;99.90;;;;;;5014818;28;20139;-75
2023/01/19 12:25:09;;;;;;;9.70;2.28;;;6.80;99.90;;;;;;4994897;28;20048;-76
2023/01/19 12:27:42;;;;;;;7.47;1.52;;;6.90;99.90;;;;;;5011548;28;20077;-76
2023/01/19 12:30:35;;;;;;;3.95;1.35;;;6.90;99.90;;;;;;5011514;28;20052;-76
2023/01/19 12:33:32;;;;;;;9.02;1.58;;;6.90;99.90;;;;;;4992731;28;20062;-76
2023/01/19 12:36:05;;;;;;;3.10;0.90;;;6.90;99.90;;;;;;5012573;28;20046;-76
2023/01/19 12:38:49;;;;;;;4.45;2.05;;;6.90;99.90;;;;;;5011691;28;20045;-76
2023/01/19 12:41:23;;;;;;;5.72;1.42;;;6.80;99.90;;;;;;5011876;28;20073;-76
2023/01/19 12:44:09;;;;;;;6.35;1.38;;;6.70;99.90;;;;;;5012937;28;20033;-76
2023/01/19 12:46:37;;;;;;;6.68;1.25;;;6.60;99.90;;;;;;5009565;28;20045;-76
2023/01/19 12:49:10;;;;;;;4.95;1.38;;;6.50;99.90;;;;;;5011472;28;20069;-76
2023/01/19 12:51:36;;;;;;;6.28;1.63;;;6.40;99.90;;;;;;5011090;28;20033;-75
2023/01/19 12:54:06;;;;;;;6.72;1.80;;;6.30;99.90;;;;;;4993423;28;20045;-73
2023/01/19 12:56:35;;;;;;;6.72;1.73;;;6.30;99.90;;;;;;4998004;28;20093;-74
2023/01/19 12:59:02;;;;;;;7.00;2.30;;;6.20;99.90;;;;;;5008804;28;20133;-74
2023/01/19 13:01:28;;;;;;;8.40;1.67;;;6.20;99.90;;;;;;5022933;28;20384;-73
2023/01/19 13:03:59;;;;;;;4.00;1.00;;;6.20;99.90;;;;;;5019968;28;20140;-74
2023/01/19 13:06:48;;;;;;;5.60;1.13;;;6.20;99.90;;;;;;5030676;28;20119;-74
2023/01/19 13:09:34;;;;;;;5.00;1.35;;;6.20;99.90;;;;;;5029945;28;20044;-74
2023/01/19 13:12:13;;;;;;;7.78;1.33;;;6.10;99.90;;;;;;5021448;28;20030;-74
2023/01/19 13:14:41;;;;;;;7.38;1.00;;;6.10;99.90;;;;;;5004342;28;20630;-74
2023/01/19 13:17:43;;;;;;;8.57;1.35;;;6.10;99.90;;;;;;5019412;28;20069;-74